Latest Weather Observations for Strathalbyn

IDS60901

Issued at 6:51 pm CDT Tuesday 27 January 2015 (issued every 10 minutes, with the page automatically refreshed every 10 minutes)

About weather observations | Map of Adelaide area stations | Latest observations for Adelaide area | Other Formats
Station Details ID: 024580 Name: STRATHALBYN RACECOURSE Lat: -35.28 Lon: 138.89 Height: 58.0 m
Data from the previous 72 hours. | See also: Recent months at Strathalbyn
Date/Time
CDT
Tmp

°C
App
Tmp
°C
Dew
Point
°C
Rel
Hum
%
Delta-T

°C
Wind Press
QNH
hPa
Press
MSL
hPa
Rain
since
9 am
mm
Dir
 
Spd
km/h
Gust
km/h
Spd
kts
Gust
kts
27/06:30pm 18.0 10.9 8.0 52 5.1 S 35 46 19 25 1016.9 - 0.0
27/06:00pm 18.2 10.9 7.3 49 5.5 S 35 70 19 38 1016.8 1016.7 0.0
27/05:56pm 18.6 11.0 7.7 49 5.6 S 37 70 20 38 1016.6 - 0.0
27/05:30pm 18.7 11.2 6.2 44 6.2 S 35 48 19 26 1016.9 - 0.0
27/05:00pm 20.0 13.1 6.4 41 6.8 S 32 46 17 25 1016.7 - 0.0
27/04:42pm 19.5 13.1 6.9 44 6.4 S 30 48 16 26 1016.7 - 0.0
27/04:30pm 19.2 11.9 7.0 45 6.2 S 35 48 19 26 1016.7 - 0.0
27/04:00pm 19.6 13.0 7.7 46 6.1 S 32 43 17 23 1016.8 - 0.0
27/03:30pm 19.2 12.5 7.3 46 6.0 S 32 41 17 22 1017.0 - 0.0
27/03:00pm 18.3 12.0 7.4 49 5.5 S 30 43 16 23 1017.3 1017.2 0.0
27/02:30pm 18.5 12.0 6.7 46 5.9 S 30 44 16 24 1017.4 - 0.0
27/02:00pm 19.2 12.4 7.0 45 6.2 S 32 43 17 23 1017.4 - 0.0
27/01:30pm 18.1 12.0 6.6 47 5.7 SSE 28 37 15 20 1017.7 - 0.0
27/01:00pm 19.0 13.0 7.1 46 6.0 SSE 28 37 15 20 1017.9 - 0.0
27/12:30pm 18.6 12.7 5.8 43 6.3 SSE 26 37 14 20 1018.1 - 0.0
27/12:00pm 18.9 14.0 6.7 45 6.1 SE 22 33 12 18 1018.4 1018.3 0.0
27/11:30am 18.4 13.4 6.6 46 5.9 SE 22 33 12 18 1018.4 - 0.0
27/11:00am 17.2 12.5 6.1 48 5.4 ESE 20 28 11 15 1018.8 - 0.0
27/10:30am 16.6 11.9 5.9 49 5.2 SE 20 30 11 16 1018.9 - 0.0
27/10:00am 16.6 11.9 6.1 50 5.1 SE 20 30 11 16 1019.0 - 0.0
27/09:30am 16.4 11.9 6.0 50 5.1 SE 19 26 10 14 1019.0 - 0.0
27/09:00am 15.5 10.8 6.0 53 4.6 ESE 20 28 11 15 1019.1 1019.0 0.0
27/08:30am 15.2 11.5 6.5 56 4.2 ESE 15 24 8 13 1019.1 - 0.0
27/08:00am 14.8 12.1 7.4 61 3.7 E 11 17 6 9 1019.0 - 0.0
27/07:30am 13.5 11.5 7.3 66 3.0 E 7 9 4 5 1018.7 - 0.0
27/07:00am 12.9 11.0 6.9 67 2.9 E 6 7 3 4 1018.6 - 0.0
27/06:30am 13.0 10.9 6.6 65 3.1 E 7 13 4 7 1018.3 - 0.0
27/06:00am 13.5 10.7 6.8 64 3.2 E 11 15 6 8 1018.0 1017.9 0.0
27/05:30am 13.6 10.4 6.7 63 3.3 E 13 17 7 9 1017.8 - 0.0
27/05:00am 13.4 11.6 7.2 66 3.0 ESE 6 9 3 5 1017.6 - 0.0
27/04:30am 13.3 11.6 7.5 68 2.8 ESE 6 7 3 4 1017.6 - 0.0
27/04:00am 13.3 11.7 8.0 70 2.6 ESE 6 7 3 4 1017.5 - 0.0
27/03:30am 13.6 11.0 7.8 68 2.9 ESE 11 17 6 9 1017.4 - 0.0
27/03:00am 14.4 11.7 9.0 70 2.7 ESE 13 19 7 10 1017.6 1017.5 0.0
27/02:30am 12.9 11.3 8.2 73 2.3 S 6 9 3 5 1017.6 - 0.0
27/02:00am 13.0 10.4 7.7 70 2.6 S 11 15 6 8 1017.7 - 0.0
27/01:30am 13.5 10.6 8.1 70 2.7 SSW 13 15 7 8 1018.0 - 0.0
27/01:00am 13.5 10.5 7.9 69 2.8 SSW 13 15 7 8 1018.2 - 0.0
27/12:30am 13.1 10.5 7.8 70 2.6 SW 11 15 6 8 1018.4 - 0.0
27/12:00am 12.4 10.0 6.9 69 2.6 SW 9 13 5 7 1018.5 1018.4 0.0
 
Date/Time
CDT
Tmp

°C
App
Tmp
°C
Dew
Point
°C
Rel
Hum
%
Delta-T

°C
Wind Press
QNH
hPa
Press
MSL
hPa
Rain
since
9 am
mm
Dir
 
Spd
km/h
Gust
km/h
Spd
kts
Gust
kts
26/11:30pm 12.8 9.6 7.0 68 2.8 SSW 13 15 7 8 - - 0.0
26/11:00pm 12.7 10.6 6.7 67 2.9 S 7 9 4 5 1018.7 - 0.0
26/10:30pm 12.6 9.6 6.2 65 3.0 S 11 13 6 7 1018.7 - 0.0
26/10:00pm 13.0 10.1 6.4 64 3.2 S 11 15 6 8 1018.7 - 0.0
26/09:30pm 13.9 10.6 6.5 61 3.6 S 13 17 7 9 1018.4 - 0.0
26/09:00pm 14.7 10.6 6.3 57 4.0 S 17 20 9 11 1018.2 1018.1 0.0
26/08:30pm 15.7 10.3 6.2 53 4.6 S 24 33 13 18 1018.1 - 0.0
26/08:00pm 16.2 10.7 7.4 56 4.4 S 26 33 14 18 1017.8 - 0.0
26/07:30pm 16.7 10.6 6.8 52 4.9 S 28 35 15 19 1017.6 - 0.0
26/07:00pm 17.0 10.8 6.2 49 5.3 S 28 33 15 18 1017.4 - 0.0
26/06:30pm 18.1 11.8 5.7 44 6.1 S 28 33 15 18 1017.1 - 0.0
26/06:00pm 18.8 12.2 6.0 43 6.3 S 30 41 16 22 1017.0 1016.9 0.0
26/05:30pm 19.0 12.8 6.1 43 6.4 SSW 28 35 15 19 1017.1 - 0.0
26/05:00pm 18.5 12.0 4.7 40 6.6 SSW 28 43 15 23 1017.2 - 0.0
26/04:30pm 18.8 12.5 3.8 37 7.1 S 26 32 14 17 1017.1 - 0.0
26/04:00pm 19.3 13.8 5.7 41 6.7 S 24 32 13 17 1017.1 - 0.0
26/03:30pm 18.8 12.6 4.2 38 7.0 S 26 37 14 20 1017.3 - 0.0
26/03:00pm 19.3 13.2 4.6 38 7.1 S 26 35 14 19 1017.3 1017.2 0.0
26/02:30pm 18.8 13.6 5.6 42 6.5 S 22 33 12 18 1017.3 - 0.0
26/02:00pm 18.4 13.7 5.9 44 6.2 S 20 32 11 17 1017.6 - 0.0
26/01:30pm 18.4 13.8 5.6 43 6.3 SSE 19 32 10 17 1017.8 - 0.0
26/01:00pm 17.8 14.1 6.3 47 5.7 SE 15 20 8 11 1017.9 - 0.0
26/12:30pm 18.1 15.0 7.2 49 5.5 SE 13 24 7 13 1017.9 - 0.0
26/12:00pm 17.5 13.9 6.7 49 5.4 ESE 15 28 8 15 1018.3 1018.2 0.0
26/11:30am 16.2 12.9 8.2 59 4.1 E 15 22 8 12 1018.4 - 0.0
26/11:00am 15.0 12.1 9.6 70 2.8 SE 15 24 8 13 1018.6 - 0.0
26/10:30am 16.0 13.8 8.0 59 4.0 ESE 9 19 5 10 1018.3 - 0.0
26/10:00am 16.0 14.3 8.2 60 4.0 ENE 7 11 4 6 1018.5 - 0.0
26/09:30am 15.3 13.6 8.3 63 3.5 E 7 11 4 6 1018.8 - 0.0
26/09:00am 15.1 13.2 9.2 68 3.0 E 9 11 5 6 1018.7 1018.6 0.0
26/08:30am 14.4 13.9 9.2 71 2.7 W 2 6 1 3 1018.6 - 0.0
26/08:00am 14.2 14.1 9.6 74 2.4 CALM 0 6 0 3 1018.3 - 0.0
26/07:30am 14.2 12.9 9.2 72 2.6 W 6 7 3 4 1018.1 - 0.0
26/07:00am 13.8 12.6 9.5 75 2.2 W 6 7 3 4 1017.6 - 0.0
26/06:30am 13.4 12.0 9.6 78 1.9 W 7 11 4 6 1017.5 - 0.0
26/06:00am 13.5 11.7 9.6 77 2.0 WSW 9 19 5 10 1017.1 1017.0 0.0
26/05:30am 13.9 11.1 8.7 71 2.6 S 13 17 7 9 1016.7 - 0.0
26/05:00am 13.9 12.1 9.3 74 2.4 S 9 13 5 7 1016.4 - 0.0
26/04:30am 13.9 10.2 9.5 75 2.3 S 19 24 10 13 1016.3 - 0.0
26/04:00am 14.5 12.9 8.9 69 2.9 S 7 9 4 5 1016.0 - 0.0
26/03:30am 14.3 12.7 8.9 70 2.7 S 7 9 4 5 1015.9 - 0.0
26/03:00am 15.0 12.3 8.9 67 3.1 S 13 15 7 8 1015.7 1015.6 0.0
26/02:30am 15.1 12.6 8.3 64 3.4 S 11 17 6 9 1015.7 - 0.0
26/02:00am 14.8 12.7 8.3 65 3.3 WSW 9 15 5 8 1015.8 - 0.0
26/01:30am 15.0 12.8 8.0 63 3.5 SW 9 15 5 8 1015.9 - 0.0
26/01:00am 14.8 12.1 7.4 61 3.7 W 11 13 6 7 1016.2 - 0.0
26/12:30am 14.8 12.3 8.1 64 3.4 WSW 11 19 6 10 1016.2 - 0.0
26/12:00am 13.5 11.1 6.8 64 3.2 WSW 9 13 5 7 1016.4 1016.3 0.0
 
Date/Time
CDT
Tmp

°C
App
Tmp
°C
Dew
Point
°C
Rel
Hum
%
Delta-T

°C
Wind Press
QNH
hPa
Press
MSL
hPa
Rain
since
9 am
mm
Dir
 
Spd
km/h
Gust
km/h
Spd
kts
Gust
kts
25/11:30pm 14.3 11.5 6.9 61 3.6 WSW 11 15 6 8 1016.4 - 0.0
25/11:00pm 13.8 11.3 6.7 62 3.4 SW 9 11 5 6 1016.3 - 0.0
25/10:30pm 14.5 11.4 7.1 61 3.6 SSW 13 20 7 11 1016.2 - 0.0
25/10:00pm 15.0 11.7 6.6 57 4.1 SSW 13 17 7 9 1016.0 - 0.0
25/09:30pm 15.3 10.9 6.6 56 4.2 SSW 19 24 10 13 1015.7 - 0.0
25/09:00pm 16.2 11.4 7.4 56 4.4 SSW 22 30 12 16 1015.3 1015.2 0.0
25/08:30pm 16.0 10.7 6.7 54 4.6 SSW 24 32 13 17 1015.1 - 0.0
25/08:00pm 16.4 10.5 7.3 55 4.5 SSW 28 33 15 18 1015.0 - 0.0
25/07:30pm 16.9 9.9 6.1 49 5.3 S 32 41 17 22 1014.7 - 0.0
25/07:00pm 17.7 10.2 4.6 42 6.2 SSW 33 44 18 24 1014.4 - 0.0
25/06:30pm 17.9 10.5 5.2 43 6.1 SSW 33 43 18 23 1014.0 - 0.0
25/06:00pm 18.7 10.5 6.5 45 6.1 SSW 39 50 21 27 1014.0 1013.8 0.0
25/05:30pm 18.1 10.9 7.5 50 5.4 SSW 35 48 19 26 1013.9 - 0.0
25/05:00pm 18.8 11.0 6.6 45 6.1 SSW 37 52 20 28 1013.6 - 0.0
25/04:30pm 19.0 10.4 6.5 44 6.2 SSW 41 52 22 28 1013.6 - 0.0
25/04:01pm 19.4 11.6 4.7 38 7.1 SSW 35 54 19 29 1013.6 - 0.0
25/04:00pm 19.7 11.5 4.6 37 7.3 SSW 37 54 20 29 1013.6 - 0.0
25/03:35pm 20.3 13.2 6.3 40 7.0 SSW 33 52 18 28 1013.5 - 0.0
25/03:30pm 20.4 12.3 5.2 37 7.5 SSW 37 52 20 28 1013.6 - 0.0
25/03:08pm 20.2 12.7 4.7 36 7.5 S 33 56 18 30 1013.3 - 0.0
25/03:00pm 20.7 12.9 5.1 36 7.7 SSW 35 46 19 25 1013.6 1013.4 0.0
25/02:50pm 19.9 12.7 4.8 37 7.3 SSW 32 52 17 28 1013.5 - 0.0
25/02:30pm 19.5 12.0 6.3 42 6.6 SSW 35 46 19 25 1013.7 - 0.0
25/02:00pm 19.5 12.1 6.6 43 6.5 SSW 35 46 19 25 1013.7 - 0.0
25/01:30pm 20.5 13.7 4.9 36 7.6 SSW 30 43 16 23 1013.7 - 0.0
25/01:08pm 19.3 12.1 5.7 41 6.7 SW 33 48 18 26 1013.7 - 0.0
25/01:00pm 19.5 11.5 5.6 40 6.9 S 37 48 20 26 1013.6 - 0.0
25/12:58pm 19.2 11.3 6.0 42 6.5 S 37 46 20 25 1013.6 - 0.0
25/12:30pm 19.4 13.1 3.6 35 7.5 SW 26 39 14 21 1014.0 - 0.0
25/12:00pm 18.7 12.7 5.5 42 6.5 SW 26 39 14 21 1013.8 1013.6 0.0
25/11:30am 18.3 10.5 6.8 47 5.8 SSW 37 46 20 25 1013.7 - 0.0
25/11:23am 18.3 12.2 6.8 47 5.8 SSW 28 46 15 25 1013.5 - 0.0
25/11:00am 19.0 13.4 5.5 41 6.6 SW 24 39 13 21 1013.5 - 0.0
25/10:30am 19.5 13.8 4.8 38 7.1 SW 24 35 13 19 1013.3 - 0.0
25/10:00am 19.1 14.0 4.1 37 7.2 SW 20 32 11 17 1013.3 - 0.0
25/09:30am 17.8 12.3 4.0 40 6.5 SW 22 39 12 21 1013.3 - 0.0
25/09:00am 17.5 12.4 6.1 47 5.6 SW 22 32 12 17 1012.9 1012.7 0.0
25/08:30am 16.3 11.7 6.7 53 4.7 WSW 20 30 11 16 1012.6 - 0.0
25/08:00am 15.4 11.5 7.2 58 4.1 W 17 22 9 12 1012.4 - 0.0
25/07:30am 14.4 10.7 6.5 59 3.8 W 15 19 8 10 1011.9 - 0.0
25/07:00am 13.9 10.2 6.3 60 3.6 W 15 20 8 11 1011.3 - 0.0
25/06:30am 14.1 10.0 6.2 59 3.8 W 17 22 9 12 1011.1 - 0.0
25/06:00am 13.4 9.6 6.0 61 3.5 W 15 20 8 11 1010.6 1010.4 0.0
25/05:30am 12.9 9.3 6.7 66 3.0 W 15 19 8 10 1010.1 - 0.0
25/05:00am 12.8 9.9 8.1 73 2.3 WNW 13 17 7 9 1010.0 - 0.0
25/04:30am 13.3 10.0 8.2 71 2.5 W 15 20 8 11 1009.8 - 0.0
25/04:00am 13.5 10.7 8.6 72 2.5 W 13 17 7 9 1009.7 - 0.0
25/03:30am 13.8 11.1 8.8 72 2.5 W 13 20 7 11 1009.7 - 0.0
25/03:00am 14.2 11.1 8.8 70 2.7 W 15 24 8 13 1009.7 1009.5 0.0
25/02:30am 14.6 11.5 9.0 69 2.9 W 15 20 8 11 1009.7 - 0.0
25/02:00am 15.0 11.0 9.1 68 3.0 W 20 28 11 15 1009.6 - 0.0
25/01:30am 15.1 11.8 9.5 69 2.9 WSW 17 22 9 12 1009.7 - 0.0
25/01:00am 15.7 12.0 9.6 67 3.2 WSW 19 26 10 14 1009.7 - 0.0
25/12:30am 16.0 13.2 10.1 68 3.1 WSW 15 20 8 11 1009.6 - 0.0
25/12:00am 16.7 12.7 10.5 67 3.3 WSW 22 32 12 17 1009.4 1009.2 0.0
 
Date/Time
CDT
Tmp

°C
App
Tmp
°C
Dew
Point
°C
Rel
Hum
%
Delta-T

°C
Wind Press
QNH
hPa
Press
MSL
hPa
Rain
since
9 am
mm
Dir
 
Spd
km/h
Gust
km/h
Spd
kts
Gust
kts
24/11:30pm 17.5 13.0 11.5 68 3.3 WSW 26 35 14 19 1009.2 - 0.0
24/11:00pm 17.9 14.6 11.5 66 3.5 WSW 20 33 11 18 1008.7 - 0.0
24/10:30pm 18.0 13.6 11.8 67 3.4 W 26 39 14 21 1008.5 - 0.0
24/10:00pm 18.2 15.3 12.4 69 3.2 WSW 19 28 10 15 1008.4 - 0.0
24/09:30pm 18.9 14.6 11.9 64 3.9 W 26 44 14 24 1007.9 - 0.0
24/09:00pm 19.0 15.2 11.3 61 4.2 W 22 32 12 17 1007.5 1007.3 0.0
24/08:30pm 19.7 15.3 11.7 60 4.4 W 26 37 14 20 1007.3 - 0.0
24/08:00pm 20.4 15.1 11.1 55 5.1 W 30 43 16 23 1007.0 - 0.0
24/07:30pm 21.3 16.0 11.1 52 5.6 W 30 48 16 26 1006.6 - 0.0
24/07:22pm 21.5 16.0 10.6 50 6.0 W 30 48 16 26 1006.5 - 0.0
24/07:00pm 22.3 17.6 10.8 48 6.4 W 26 35 14 19 1006.4 - 0.0

Latest Capital City Observations: Canberra | Sydney | Melbourne | Brisbane | Adelaide | Perth | Hobart | Darwin

Other Formats:

Comma delimited format used in spreadsheet applications
http://www.bom.gov.au/fwo/IDS60901/IDS60901.94814.axf

JavaScript Object Notation format (JSON) in row-major order
http://www.bom.gov.au/fwo/IDS60901/IDS60901.94814.json